sensor_id;sensor_type;location;lat;lon;timestamp;P1;durP1;ratioP1;P2;durP2;ratioP2
12296;SDS011;6211;49.124;9.152;2024-03-08T00:01:47;8.70;;;6.53;;
12296;SDS011;6211;49.124;9.152;2024-03-08T00:04:15;11.93;;;7.20;;
12296;SDS011;6211;49.124;9.152;2024-03-08T00:06:42;12.20;;;7.95;;
12296;SDS011;6211;49.124;9.152;2024-03-08T00:09:12;11.27;;;7.15;;
12296;SDS011;6211;49.124;9.152;2024-03-08T00:11:39;13.45;;;7.13;;
12296;SDS011;6211;49.124;9.152;2024-03-08T00:14:06;9.30;;;6.50;;
12296;SDS011;6211;49.124;9.152;2024-03-08T00:16:33;11.65;;;6.90;;
12296;SDS011;6211;49.124;9.152;2024-03-08T00:19:02;9.93;;;6.63;;
12296;SDS011;6211;49.124;9.152;2024-03-08T00:21:29;12.02;;;6.78;;
12296;SDS011;6211;49.124;9.152;2024-03-08T00:23:56;8.57;;;5.78;;
12296;SDS011;6211;49.124;9.152;2024-03-08T00:26:24;13.77;;;6.75;;
12296;SDS011;6211;49.124;9.152;2024-03-08T00:28:52;12.63;;;7.35;;
12296;SDS011;6211;49.124;9.152;2024-03-08T00:31:19;10.98;;;5.70;;
12296;SDS011;6211;49.124;9.152;2024-03-08T00:33:46;10.85;;;7.30;;
12296;SDS011;6211;49.124;9.152;2024-03-08T00:36:14;11.80;;;7.25;;
12296;SDS011;6211;49.124;9.152;2024-03-08T00:38:41;10.50;;;6.13;;
12296;SDS011;6211;49.124;9.152;2024-03-08T00:41:08;9.25;;;6.47;;
12296;SDS011;6211;49.124;9.152;2024-03-08T00:43:36;10.65;;;7.25;;
12296;SDS011;6211;49.124;9.152;2024-03-08T00:46:04;8.68;;;6.03;;
12296;SDS011;6211;49.124;9.152;2024-03-08T00:48:31;9.00;;;7.05;;
12296;SDS011;6211;49.124;9.152;2024-03-08T00:50:58;13.93;;;7.40;;
12296;SDS011;6211;49.124;9.152;2024-03-08T00:53:27;11.70;;;6.90;;
12296;SDS011;6211;49.124;9.152;2024-03-08T00:55:54;11.10;;;6.97;;
12296;SDS011;6211;49.124;9.152;2024-03-08T00:58:21;9.40;;;5.85;;
12296;SDS011;6211;49.124;9.152;2024-03-08T01:00:50;8.52;;;6.68;;
12296;SDS011;6211;49.124;9.152;2024-03-08T01:03:17;14.55;;;8.07;;
12296;SDS011;6211;49.124;9.152;2024-03-08T01:05:44;9.40;;;6.90;;
12296;SDS011;6211;49.124;9.152;2024-03-08T01:08:11;10.05;;;6.28;;
12296;SDS011;6211;49.124;9.152;2024-03-08T01:10:38;12.38;;;6.88;;
12296;SDS011;6211;49.124;9.152;2024-03-08T01:13:05;11.38;;;7.40;;
12296;SDS011;6211;49.124;9.152;2024-03-08T01:15:34;10.88;;;7.13;;
12296;SDS011;6211;49.124;9.152;2024-03-08T01:18:03;10.20;;;6.25;;
12296;SDS011;6211;49.124;9.152;2024-03-08T01:20:30;9.93;;;6.20;;
12296;SDS011;6211;49.124;9.152;2024-03-08T01:22:57;8.75;;;5.95;;
12296;SDS011;6211;49.124;9.152;2024-03-08T01:25:24;11.43;;;7.78;;
12296;SDS011;6211;49.124;9.152;2024-03-08T01:27:52;6.78;;;6.05;;
12296;SDS011;6211;49.124;9.152;2024-03-08T01:30:19;11.07;;;6.72;;
12296;SDS011;6211;49.124;9.152;2024-03-08T01:32:46;13.70;;;7.03;;
12296;SDS011;6211;49.124;9.152;2024-03-08T01:35:15;9.48;;;6.43;;
12296;SDS011;6211;49.124;9.152;2024-03-08T01:37:43;11.77;;;7.13;;
12296;SDS011;6211;49.124;9.152;2024-03-08T01:40:10;10.65;;;6.47;;
12296;SDS011;6211;49.124;9.152;2024-03-08T01:42:37;18.27;;;8.40;;
12296;SDS011;6211;49.124;9.152;2024-03-08T01:45:06;8.02;;;5.72;;
12296;SDS011;6211;49.124;9.152;2024-03-08T01:47:34;8.85;;;6.18;;
12296;SDS011;6211;49.124;9.152;2024-03-08T01:50:01;9.77;;;6.82;;
12296;SDS011;6211;49.124;9.152;2024-03-08T01:52:30;10.52;;;7.40;;
12296;SDS011;6211;49.124;9.152;2024-03-08T01:54:57;10.23;;;6.55;;
12296;SDS011;6211;49.124;9.152;2024-03-08T01:57:25;11.27;;;7.28;;
12296;SDS011;6211;49.124;9.152;2024-03-08T01:59:52;9.73;;;7.07;;
12296;SDS011;6211;49.124;9.152;2024-03-08T02:02:21;9.00;;;6.25;;
12296;SDS011;6211;49.124;9.152;2024-03-08T02:04:48;12.00;;;7.28;;
12296;SDS011;6211;49.124;9.152;2024-03-08T02:07:17;13.18;;;6.60;;
12296;SDS011;6211;49.124;9.152;2024-03-08T02:09:46;11.10;;;6.80;;
12296;SDS011;6211;49.124;9.152;2024-03-08T02:12:13;10.88;;;5.97;;
12296;SDS011;6211;49.124;9.152;2024-03-08T02:14:40;8.73;;;6.82;;
12296;SDS011;6211;49.124;9.152;2024-03-08T02:17:08;12.82;;;7.03;;
12296;SDS011;6211;49.124;9.152;2024-03-08T02:19:36;13.07;;;7.25;;
12296;SDS011;6211;49.124;9.152;2024-03-08T02:22:05;12.88;;;6.95;;
12296;SDS011;6211;49.124;9.152;2024-03-08T02:24:32;14.27;;;8.45;;
12296;SDS011;6211;49.124;9.152;2024-03-08T02:26:59;10.80;;;7.75;;
12296;SDS011;6211;49.124;9.152;2024-03-08T02:29:27;9.73;;;6.90;;
12296;SDS011;6211;49.124;9.152;2024-03-08T02:31:54;9.77;;;7.05;;
12296;SDS011;6211;49.124;9.152;2024-03-08T02:34:22;9.93;;;6.72;;
12296;SDS011;6211;49.124;9.152;2024-03-08T02:36:49;11.40;;;6.68;;
12296;SDS011;6211;49.124;9.152;2024-03-08T02:39:18;10.05;;;6.75;;
12296;SDS011;6211;49.124;9.152;2024-03-08T02:41:45;8.02;;;6.38;;
12296;SDS011;6211;49.124;9.152;2024-03-08T02:44:12;10.10;;;5.78;;
12296;SDS011;6211;49.124;9.152;2024-03-08T02:46:40;9.07;;;6.32;;
12296;SDS011;6211;49.124;9.152;2024-03-08T02:49:07;11.23;;;7.22;;
12296;SDS011;6211;49.124;9.152;2024-03-08T02:51:34;9.70;;;7.10;;
12296;SDS011;6211;49.124;9.152;2024-03-08T02:54:01;10.25;;;6.97;;
12296;SDS011;6211;49.124;9.152;2024-03-08T02:56:31;8.60;;;6.75;;
12296;SDS011;6211;49.124;9.152;2024-03-08T02:58:59;11.15;;;6.68;;
12296;SDS011;6211;49.124;9.152;2024-03-08T03:01:27;9.82;;;6.65;;
12296;SDS011;6211;49.124;9.152;2024-03-08T03:03:54;12.35;;;7.00;;
12296;SDS011;6211;49.124;9.152;2024-03-08T03:06:21;8.98;;;5.82;;
12296;SDS011;6211;49.124;9.152;2024-03-08T03:08:48;10.95;;;7.13;;
12296;SDS011;6211;49.124;9.152;2024-03-08T03:11:16;11.82;;;7.50;;
12296;SDS011;6211;49.124;9.152;2024-03-08T03:13:44;8.45;;;5.63;;
12296;SDS011;6211;49.124;9.152;2024-03-08T03:16:16;6.93;;;5.97;;
12296;SDS011;6211;49.124;9.152;2024-03-08T03:18:43;7.95;;;5.57;;
12296;SDS011;6211;49.124;9.152;2024-03-08T03:21:10;13.50;;;7.70;;
12296;SDS011;6211;49.124;9.152;2024-03-08T03:23:38;8.98;;;6.00;;
12296;SDS011;6211;49.124;9.152;2024-03-08T03:26:06;8.18;;;5.22;;
12296;SDS011;6211;49.124;9.152;2024-03-08T03:28:34;11.05;;;7.43;;
12296;SDS011;6211;49.124;9.152;2024-03-08T03:31:05;8.82;;;6.00;;
12296;SDS011;6211;49.124;9.152;2024-03-08T03:33:32;13.98;;;6.95;;
12296;SDS011;6211;49.124;9.152;2024-03-08T03:36:01;8.88;;;5.65;;
12296;SDS011;6211;49.124;9.152;2024-03-08T03:38:30;8.35;;;6.07;;
12296;SDS011;6211;49.124;9.152;2024-03-08T03:40:57;9.63;;;5.78;;
12296;SDS011;6211;49.124;9.152;2024-03-08T03:43:31;8.85;;;5.53;;
12296;SDS011;6211;49.124;9.152;2024-03-08T03:45:58;8.68;;;6.25;;
12296;SDS011;6211;49.124;9.152;2024-03-08T03:48:27;10.15;;;6.95;;
12296;SDS011;6211;49.124;9.152;2024-03-08T03:50:54;8.85;;;6.10;;
12296;SDS011;6211;49.124;9.152;2024-03-08T03:53:21;7.68;;;6.05;;
12296;SDS011;6211;49.124;9.152;2024-03-08T03:55:48;9.77;;;6.15;;
12296;SDS011;6211;49.124;9.152;2024-03-08T03:58:15;12.18;;;7.38;;
12296;SDS011;6211;49.124;9.152;2024-03-08T04:00:47;8.23;;;5.50;;
12296;SDS011;6211;49.124;9.152;2024-03-08T04:03:14;8.50;;;5.72;;
12296;SDS011;6211;49.124;9.152;2024-03-08T04:05:43;11.30;;;7.10;;
12296;SDS011;6211;49.124;9.152;2024-03-08T04:08:10;8.00;;;6.05;;
12296;SDS011;6211;49.124;9.152;2024-03-08T04:10:37;9.40;;;6.50;;
12296;SDS011;6211;49.124;9.152;2024-03-08T04:13:06;9.20;;;5.90;;
12296;SDS011;6211;49.124;9.152;2024-03-08T04:15:34;8.40;;;5.68;;
12296;SDS011;6211;49.124;9.152;2024-03-08T04:18:03;12.85;;;6.80;;
12296;SDS011;6211;49.124;9.152;2024-03-08T04:20:30;12.48;;;7.68;;
12296;SDS011;6211;49.124;9.152;2024-03-08T04:22:58;7.35;;;6.28;;
12296;SDS011;6211;49.124;9.152;2024-03-08T04:25:25;9.50;;;6.53;;
12296;SDS011;6211;49.124;9.152;2024-03-08T04:27:53;12.43;;;6.50;;
12296;SDS011;6211;49.124;9.152;2024-03-08T04:30:20;8.23;;;6.50;;
12296;SDS011;6211;49.124;9.152;2024-03-08T04:32:47;8.05;;;6.07;;
12296;SDS011;6211;49.124;9.152;2024-03-08T04:35:15;8.60;;;6.07;;
12296;SDS011;6211;49.124;9.152;2024-03-08T04:37:42;11.02;;;5.50;;
12296;SDS011;6211;49.124;9.152;2024-03-08T04:40:11;11.50;;;6.55;;
12296;SDS011;6211;49.124;9.152;2024-03-08T04:42:38;9.10;;;6.05;;
12296;SDS011;6211;49.124;9.152;2024-03-08T04:45:06;8.63;;;4.85;;
12296;SDS011;6211;49.124;9.152;2024-03-08T04:47:35;13.50;;;8.45;;
12296;SDS011;6211;49.124;9.152;2024-03-08T04:50:03;7.82;;;5.53;;
12296;SDS011;6211;49.124;9.152;2024-03-08T04:52:30;10.40;;;6.43;;
12296;SDS011;6211;49.124;9.152;2024-03-08T04:54:57;9.55;;;7.68;;
12296;SDS011;6211;49.124;9.152;2024-03-08T04:57:26;11.05;;;7.32;;
12296;SDS011;6211;49.124;9.152;2024-03-08T04:59:53;8.60;;;6.80;;
12296;SDS011;6211;49.124;9.152;2024-03-08T05:02:20;10.02;;;6.07;;
12296;SDS011;6211;49.124;9.152;2024-03-08T05:04:48;10.52;;;6.13;;
12296;SDS011;6211;49.124;9.152;2024-03-08T05:07:15;9.55;;;6.78;;
12296;SDS011;6211;49.124;9.152;2024-03-08T05:09:42;9.75;;;6.55;;
12296;SDS011;6211;49.124;9.152;2024-03-08T05:12:16;11.60;;;6.85;;
12296;SDS011;6211;49.124;9.152;2024-03-08T05:14:44;8.45;;;6.45;;
12296;SDS011;6211;49.124;9.152;2024-03-08T05:17:14;9.20;;;5.32;;
12296;SDS011;6211;49.124;9.152;2024-03-08T05:19:42;12.02;;;6.45;;
12296;SDS011;6211;49.124;9.152;2024-03-08T05:22:09;9.80;;;6.60;;
12296;SDS011;6211;49.124;9.152;2024-03-08T05:24:36;10.98;;;7.45;;
12296;SDS011;6211;49.124;9.152;2024-03-08T05:27:03;10.32;;;7.45;;
12296;SDS011;6211;49.124;9.152;2024-03-08T05:29:31;10.50;;;7.25;;
12296;SDS011;6211;49.124;9.152;2024-03-08T05:31:59;9.18;;;6.65;;
12296;SDS011;6211;49.124;9.152;2024-03-08T05:34:27;12.73;;;6.47;;
12296;SDS011;6211;49.124;9.152;2024-03-08T05:36:54;11.13;;;7.00;;
12296;SDS011;6211;49.124;9.152;2024-03-08T05:39:23;12.57;;;7.22;;
12296;SDS011;6211;49.124;9.152;2024-03-08T05:41:50;10.55;;;6.47;;
12296;SDS011;6211;49.124;9.152;2024-03-08T05:44:17;14.25;;;7.80;;
12296;SDS011;6211;49.124;9.152;2024-03-08T05:46:44;13.57;;;7.30;;
12296;SDS011;6211;49.124;9.152;2024-03-08T05:49:13;11.93;;;6.97;;
12296;SDS011;6211;49.124;9.152;2024-03-08T05:51:40;9.50;;;6.65;;
12296;SDS011;6211;49.124;9.152;2024-03-08T05:54:08;7.88;;;5.22;;
12296;SDS011;6211;49.124;9.152;2024-03-08T05:56:35;8.50;;;6.70;;
12296;SDS011;6211;49.124;9.152;2024-03-08T05:59:03;9.80;;;6.38;;
12296;SDS011;6211;49.124;9.152;2024-03-08T06:01:30;13.68;;;6.57;;
12296;SDS011;6211;49.124;9.152;2024-03-08T06:03:58;10.93;;;6.95;;
12296;SDS011;6211;49.124;9.152;2024-03-08T06:06:26;9.95;;;6.32;;
12296;SDS011;6211;49.124;9.152;2024-03-08T06:08:53;12.63;;;8.57;;
12296;SDS011;6211;49.124;9.152;2024-03-08T06:11:21;12.75;;;7.65;;
12296;SDS011;6211;49.124;9.152;2024-03-08T06:13:48;10.93;;;6.25;;
12296;SDS011;6211;49.124;9.152;2024-03-08T06:16:16;11.13;;;7.53;;
12296;SDS011;6211;49.124;9.152;2024-03-08T06:18:43;14.48;;;9.00;;
12296;SDS011;6211;49.124;9.152;2024-03-08T06:21:12;14.35;;;7.72;;
12296;SDS011;6211;49.124;9.152;2024-03-08T06:23:42;10.57;;;7.10;;
12296;SDS011;6211;49.124;9.152;2024-03-08T06:26:09;9.32;;;6.13;;
12296;SDS011;6211;49.124;9.152;2024-03-08T06:28:36;12.68;;;8.85;;
12296;SDS011;6211;49.124;9.152;2024-03-08T06:31:03;13.57;;;6.45;;
12296;SDS011;6211;49.124;9.152;2024-03-08T06:33:32;11.80;;;6.65;;
12296;SDS011;6211;49.124;9.152;2024-03-08T06:36:00;13.07;;;7.28;;
12296;SDS011;6211;49.124;9.152;2024-03-08T06:38:27;14.30;;;7.65;;
12296;SDS011;6211;49.124;9.152;2024-03-08T06:40:56;10.63;;;7.53;;
12296;SDS011;6211;49.124;9.152;2024-03-08T06:43:24;17.13;;;7.90;;
12296;SDS011;6211;49.124;9.152;2024-03-08T06:45:57;10.63;;;6.95;;
12296;SDS011;6211;49.124;9.152;2024-03-08T06:48:25;11.40;;;7.40;;
12296;SDS011;6211;49.124;9.152;2024-03-08T06:50:52;15.82;;;8.80;;
12296;SDS011;6211;49.124;9.152;2024-03-08T06:53:19;12.93;;;8.05;;
12296;SDS011;6211;49.124;9.152;2024-03-08T06:55:47;11.43;;;7.15;;
12296;SDS011;6211;49.124;9.152;2024-03-08T06:58:20;15.55;;;7.95;;
12296;SDS011;6211;49.124;9.152;2024-03-08T07:00:48;14.95;;;9.25;;
12296;SDS011;6211;49.124;9.152;2024-03-08T07:03:17;13.27;;;7.72;;
12296;SDS011;6211;49.124;9.152;2024-03-08T07:05:44;10.98;;;7.25;;
12296;SDS011;6211;49.124;9.152;2024-03-08T07:08:11;13.65;;;8.77;;
12296;SDS011;6211;49.124;9.152;2024-03-08T07:10:39;13.88;;;7.90;;
12296;SDS011;6211;49.124;9.152;2024-03-08T07:13:06;15.73;;;7.75;;
12296;SDS011;6211;49.124;9.152;2024-03-08T07:15:35;12.98;;;7.15;;
12296;SDS011;6211;49.124;9.152;2024-03-08T07:18:02;11.90;;;7.75;;
12296;SDS011;6211;49.124;9.152;2024-03-08T07:20:29;15.30;;;8.82;;
12296;SDS011;6211;49.124;9.152;2024-03-08T07:22:57;13.38;;;8.35;;
12296;SDS011;6211;49.124;9.152;2024-03-08T07:25:24;13.07;;;7.85;;
12296;SDS011;6211;49.124;9.152;2024-03-08T07:27:54;14.93;;;8.95;;
12296;SDS011;6211;49.124;9.152;2024-03-08T07:30:22;14.63;;;8.25;;
12296;SDS011;6211;49.124;9.152;2024-03-08T07:33:08;13.95;;;9.32;;
12296;SDS011;6211;49.124;9.152;2024-03-08T07:35:37;13.10;;;8.27;;
12296;SDS011;6211;49.124;9.152;2024-03-08T07:38:04;12.52;;;8.10;;
12296;SDS011;6211;49.124;9.152;2024-03-08T07:40:31;14.48;;;8.93;;
12296;SDS011;6211;49.124;9.152;2024-03-08T07:42:58;11.23;;;7.43;;
12296;SDS011;6211;49.124;9.152;2024-03-08T07:45:25;13.63;;;7.68;;
12296;SDS011;6211;49.124;9.152;2024-03-08T07:47:52;13.35;;;7.68;;
12296;SDS011;6211;49.124;9.152;2024-03-08T07:50:22;13.05;;;8.50;;
12296;SDS011;6211;49.124;9.152;2024-03-08T07:52:49;13.32;;;7.65;;
12296;SDS011;6211;49.124;9.152;2024-03-08T07:55:16;13.32;;;7.93;;
12296;SDS011;6211;49.124;9.152;2024-03-08T07:57:44;13.70;;;8.52;;
12296;SDS011;6211;49.124;9.152;2024-03-08T08:00:13;13.95;;;8.80;;
12296;SDS011;6211;49.124;9.152;2024-03-08T08:02:42;14.27;;;8.07;;
12296;SDS011;6211;49.124;9.152;2024-03-08T08:05:10;12.95;;;8.10;;
12296;SDS011;6211;49.124;9.152;2024-03-08T08:07:39;14.68;;;8.80;;
12296;SDS011;6211;49.124;9.152;2024-03-08T08:10:08;13.90;;;8.10;;
12296;SDS011;6211;49.124;9.152;2024-03-08T08:12:41;11.73;;;7.93;;
12296;SDS011;6211;49.124;9.152;2024-03-08T08:15:09;13.90;;;8.05;;
12296;SDS011;6211;49.124;9.152;2024-03-08T08:17:36;12.35;;;7.70;;
12296;SDS011;6211;49.124;9.152;2024-03-08T08:20:04;13.05;;;7.97;;
12296;SDS011;6211;49.124;9.152;2024-03-08T08:22:31;12.90;;;7.82;;
12296;SDS011;6211;49.124;9.152;2024-03-08T08:24:59;10.57;;;7.10;;
12296;SDS011;6211;49.124;9.152;2024-03-08T08:27:27;13.77;;;7.43;;
12296;SDS011;6211;49.124;9.152;2024-03-08T08:29:54;12.50;;;8.10;;
12296;SDS011;6211;49.124;9.152;2024-03-08T08:32:21;12.35;;;7.43;;
12296;SDS011;6211;49.124;9.152;2024-03-08T08:34:49;10.50;;;6.80;;
12296;SDS011;6211;49.124;9.152;2024-03-08T08:37:16;15.57;;;7.72;;
12296;SDS011;6211;49.124;9.152;2024-03-08T08:39:43;10.60;;;6.68;;
12296;SDS011;6211;49.124;9.152;2024-03-08T08:42:12;13.95;;;7.97;;
12296;SDS011;6211;49.124;9.152;2024-03-08T08:44:39;9.05;;;6.70;;
12296;SDS011;6211;49.124;9.152;2024-03-08T08:47:06;11.25;;;6.40;;
12296;SDS011;6211;49.124;9.152;2024-03-08T08:49:33;12.30;;;6.65;;
12296;SDS011;6211;49.124;9.152;2024-03-08T08:52:01;10.48;;;7.00;;
12296;SDS011;6211;49.124;9.152;2024-03-08T08:54:28;8.18;;;5.50;;
12296;SDS011;6211;49.124;9.152;2024-03-08T08:56:56;9.63;;;5.85;;
12296;SDS011;6211;49.124;9.152;2024-03-08T08:59:24;15.98;;;8.27;;
12296;SDS011;6211;49.124;9.152;2024-03-08T09:01:51;12.27;;;6.50;;
12296;SDS011;6211;49.124;9.152;2024-03-08T09:04:19;10.63;;;7.10;;
12296;SDS011;6211;49.124;9.152;2024-03-08T09:06:48;10.25;;;6.35;;
12296;SDS011;6211;49.124;9.152;2024-03-08T09:09:15;10.35;;;6.80;;
12296;SDS011;6211;49.124;9.152;2024-03-08T09:11:42;11.55;;;7.25;;
12296;SDS011;6211;49.124;9.152;2024-03-08T09:14:11;10.82;;;7.00;;
12296;SDS011;6211;49.124;9.152;2024-03-08T09:16:41;13.15;;;7.28;;
12296;SDS011;6211;49.124;9.152;2024-03-08T09:19:08;14.63;;;7.72;;
12296;SDS011;6211;49.124;9.152;2024-03-08T09:21:36;12.18;;;7.85;;
12296;SDS011;6211;49.124;9.152;2024-03-08T09:24:04;12.45;;;8.07;;
12296;SDS011;6211;49.124;9.152;2024-03-08T09:26:32;12.75;;;7.32;;
12296;SDS011;6211;49.124;9.152;2024-03-08T09:28:59;12.43;;;7.38;;
12296;SDS011;6211;49.124;9.152;2024-03-08T09:31:26;12.40;;;7.60;;
12296;SDS011;6211;49.124;9.152;2024-03-08T09:33:54;8.38;;;6.75;;
12296;SDS011;6211;49.124;9.152;2024-03-08T09:36:22;10.77;;;6.80;;
12296;SDS011;6211;49.124;9.152;2024-03-08T09:38:50;11.43;;;6.72;;
12296;SDS011;6211;49.124;9.152;2024-03-08T09:41:17;13.25;;;6.68;;
12296;SDS011;6211;49.124;9.152;2024-03-08T09:43:45;12.82;;;7.32;;
12296;SDS011;6211;49.124;9.152;2024-03-08T09:46:13;12.15;;;7.07;;
12296;SDS011;6211;49.124;9.152;2024-03-08T09:48:41;10.50;;;6.85;;
12296;SDS011;6211;49.124;9.152;2024-03-08T09:51:09;10.55;;;6.70;;
12296;SDS011;6211;49.124;9.152;2024-03-08T09:53:40;14.35;;;7.72;;
12296;SDS011;6211;49.124;9.152;2024-03-08T09:56:08;9.77;;;6.40;;
12296;SDS011;6211;49.124;9.152;2024-03-08T09:58:37;11.52;;;6.75;;
12296;SDS011;6211;49.124;9.152;2024-03-08T10:01:19;11.55;;;6.63;;
12296;SDS011;6211;49.124;9.152;2024-03-08T10:03:46;10.45;;;6.57;;
12296;SDS011;6211;49.124;9.152;2024-03-08T10:06:18;9.55;;;6.72;;
12296;SDS011;6211;49.124;9.152;2024-03-08T10:08:49;11.18;;;7.55;;
12296;SDS011;6211;49.124;9.152;2024-03-08T10:11:17;10.98;;;7.00;;
12296;SDS011;6211;49.124;9.152;2024-03-08T10:13:44;11.82;;;6.95;;
12296;SDS011;6211;49.124;9.152;2024-03-08T10:16:11;10.02;;;6.25;;
12296;SDS011;6211;49.124;9.152;2024-03-08T10:18:39;10.65;;;6.60;;
12296;SDS011;6211;49.124;9.152;2024-03-08T10:21:08;10.52;;;6.32;;
12296;SDS011;6211;49.124;9.152;2024-03-08T10:23:36;11.02;;;7.22;;
12296;SDS011;6211;49.124;9.152;2024-03-08T10:26:10;10.40;;;6.80;;
12296;SDS011;6211;49.124;9.152;2024-03-08T10:28:39;9.32;;;6.25;;
12296;SDS011;6211;49.124;9.152;2024-03-08T10:31:06;13.63;;;7.47;;
12296;SDS011;6211;49.124;9.152;2024-03-08T10:33:34;9.65;;;6.75;;
12296;SDS011;6211;49.124;9.152;2024-03-08T10:36:03;10.25;;;6.38;;
12296;SDS011;6211;49.124;9.152;2024-03-08T10:38:30;11.13;;;6.80;;
12296;SDS011;6211;49.124;9.152;2024-03-08T10:41:00;12.70;;;7.75;;
12296;SDS011;6211;49.124;9.152;2024-03-08T10:43:28;11.25;;;6.80;;
12296;SDS011;6211;49.124;9.152;2024-03-08T10:46:04;9.85;;;6.55;;
12296;SDS011;6211;49.124;9.152;2024-03-08T10:48:36;10.95;;;6.90;;
12296;SDS011;6211;49.124;9.152;2024-03-08T10:51:04;9.57;;;6.80;;
12296;SDS011;6211;49.124;9.152;2024-03-08T10:53:32;12.07;;;7.65;;
12296;SDS011;6211;49.124;9.152;2024-03-08T10:56:03;10.30;;;6.68;;
12296;SDS011;6211;49.124;9.152;2024-03-08T10:58:32;13.32;;;7.50;;
12296;SDS011;6211;49.124;9.152;2024-03-08T11:01:00;11.13;;;6.95;;
12296;SDS011;6211;49.124;9.152;2024-03-08T11:03:43;12.18;;;7.30;;
12296;SDS011;6211;49.124;9.152;2024-03-08T11:06:13;11.82;;;7.13;;
12296;SDS011;6211;49.124;9.152;2024-03-08T11:08:41;11.52;;;6.60;;
12296;SDS011;6211;49.124;9.152;2024-03-08T11:11:22;11.85;;;7.00;;
12296;SDS011;6211;49.124;9.152;2024-03-08T11:13:52;13.35;;;7.82;;
12296;SDS011;6211;49.124;9.152;2024-03-08T11:19:04;13.13;;;7.68;;
12296;SDS011;6211;49.124;9.152;2024-03-08T11:21:35;12.25;;;7.57;;
12296;SDS011;6211;49.124;9.152;2024-03-08T11:24:06;13.98;;;8.55;;
12296;SDS011;6211;49.124;9.152;2024-03-08T11:26:38;12.45;;;7.60;;
12296;SDS011;6211;49.124;9.152;2024-03-08T11:31:50;12.77;;;7.60;;
12296;SDS011;6211;49.124;9.152;2024-03-08T11:34:18;11.80;;;7.85;;
12296;SDS011;6211;49.124;9.152;2024-03-08T11:36:47;11.27;;;7.55;;
12296;SDS011;6211;49.124;9.152;2024-03-08T11:39:15;12.23;;;7.60;;
12296;SDS011;6211;49.124;9.152;2024-03-08T11:51:00;12.63;;;6.97;;
12296;SDS011;6211;49.124;9.152;2024-03-08T11:53:28;11.23;;;7.95;;
12296;SDS011;6211;49.124;9.152;2024-03-08T11:56:04;11.55;;;7.70;;
12296;SDS011;6211;49.124;9.152;2024-03-08T11:58:31;13.95;;;7.88;;
12296;SDS011;6211;49.124;9.152;2024-03-08T12:01:02;13.88;;;7.55;;
12296;SDS011;6211;49.124;9.152;2024-03-08T12:03:30;13.05;;;8.43;;
12296;SDS011;6211;49.124;9.152;2024-03-08T12:06:00;12.48;;;7.68;;
12296;SDS011;6211;49.124;9.152;2024-03-08T12:08:28;13.45;;;8.05;;
12296;SDS011;6211;49.124;9.152;2024-03-08T12:10:57;14.00;;;8.10;;
12296;SDS011;6211;49.124;9.152;2024-03-08T12:13:25;10.80;;;7.47;;
12296;SDS011;6211;49.124;9.152;2024-03-08T12:15:54;14.20;;;8.57;;
12296;SDS011;6211;49.124;9.152;2024-03-08T12:18:22;11.90;;;7.70;;
12296;SDS011;6211;49.124;9.152;2024-03-08T12:20:49;12.85;;;7.72;;
12296;SDS011;6211;49.124;9.152;2024-03-08T12:23:17;11.85;;;7.88;;
12296;SDS011;6211;49.124;9.152;2024-03-08T12:25:44;14.55;;;7.90;;
12296;SDS011;6211;49.124;9.152;2024-03-08T12:28:12;11.32;;;7.28;;
12296;SDS011;6211;49.124;9.152;2024-03-08T12:30:45;12.30;;;7.72;;
12296;SDS011;6211;49.124;9.152;2024-03-08T12:33:12;12.57;;;7.80;;
12296;SDS011;6211;49.124;9.152;2024-03-08T12:35:40;11.82;;;7.60;;
12296;SDS011;6211;49.124;9.152;2024-03-08T12:38:07;11.00;;;7.18;;
12296;SDS011;6211;49.124;9.152;2024-03-08T12:40:37;11.45;;;7.82;;
12296;SDS011;6211;49.124;9.152;2024-03-08T12:43:07;14.02;;;8.05;;
12296;SDS011;6211;49.124;9.152;2024-03-08T12:45:34;10.63;;;7.43;;
12296;SDS011;6211;49.124;9.152;2024-03-08T12:48:01;13.57;;;8.18;;
12296;SDS011;6211;49.124;9.152;2024-03-08T12:50:29;12.10;;;7.38;;
12296;SDS011;6211;49.124;9.152;2024-03-08T12:52:56;13.85;;;9.43;;
12296;SDS011;6211;49.124;9.152;2024-03-08T12:55:23;12.68;;;8.10;;
12296;SDS011;6211;49.124;9.152;2024-03-08T12:57:51;11.80;;;8.30;;
12296;SDS011;6211;49.124;9.152;2024-03-08T13:00:19;13.85;;;8.55;;
12296;SDS011;6211;49.124;9.152;2024-03-08T13:02:48;13.15;;;8.52;;
12296;SDS011;6211;49.124;9.152;2024-03-08T13:05:16;13.10;;;8.80;;
12296;SDS011;6211;49.124;9.152;2024-03-08T13:07:43;11.05;;;8.07;;
12296;SDS011;6211;49.124;9.152;2024-03-08T13:10:11;15.45;;;9.52;;
12296;SDS011;6211;49.124;9.152;2024-03-08T13:12:40;13.45;;;9.40;;
12296;SDS011;6211;49.124;9.152;2024-03-08T13:15:08;15.85;;;8.82;;
12296;SDS011;6211;49.124;9.152;2024-03-08T13:17:40;13.50;;;8.88;;
12296;SDS011;6211;49.124;9.152;2024-03-08T13:20:09;12.45;;;8.73;;
12296;SDS011;6211;49.124;9.152;2024-03-08T13:22:41;14.10;;;9.27;;
12296;SDS011;6211;49.124;9.152;2024-03-08T13:25:08;13.70;;;9.70;;
12296;SDS011;6211;49.124;9.152;2024-03-08T13:27:38;15.55;;;11.38;;
12296;SDS011;6211;49.124;9.152;2024-03-08T13:30:06;13.18;;;9.38;;
12296;SDS011;6211;49.124;9.152;2024-03-08T13:32:39;14.52;;;9.82;;
12296;SDS011;6211;49.124;9.152;2024-03-08T13:35:08;12.93;;;8.82;;
12296;SDS011;6211;49.124;9.152;2024-03-08T13:37:37;13.07;;;9.05;;
12296;SDS011;6211;49.124;9.152;2024-03-08T13:40:05;14.18;;;9.70;;
12296;SDS011;6211;49.124;9.152;2024-03-08T13:42:35;12.23;;;8.93;;
12296;SDS011;6211;49.124;9.152;2024-03-08T13:45:03;13.38;;;9.43;;
12296;SDS011;6211;49.124;9.152;2024-03-08T13:47:32;14.02;;;8.98;;
12296;SDS011;6211;49.124;9.152;2024-03-08T13:50:00;12.85;;;9.13;;
12296;SDS011;6211;49.124;9.152;2024-03-08T13:52:27;12.20;;;8.88;;
12296;SDS011;6211;49.124;9.152;2024-03-08T13:54:55;13.65;;;9.20;;
12296;SDS011;6211;49.124;9.152;2024-03-08T13:57:22;12.85;;;8.75;;
12296;SDS011;6211;49.124;9.152;2024-03-08T13:59:49;13.30;;;9.45;;
12296;SDS011;6211;49.124;9.152;2024-03-08T14:02:16;15.07;;;9.05;;
12296;SDS011;6211;49.124;9.152;2024-03-08T14:04:44;10.88;;;8.30;;
12296;SDS011;6211;49.124;9.152;2024-03-08T14:07:13;15.15;;;9.73;;
12296;SDS011;6211;49.124;9.152;2024-03-08T14:09:41;15.05;;;9.60;;
12296;SDS011;6211;49.124;9.152;2024-03-08T14:12:08;11.73;;;9.00;;
12296;SDS011;6211;49.124;9.152;2024-03-08T14:14:35;12.88;;;9.18;;
12296;SDS011;6211;49.124;9.152;2024-03-08T14:17:03;11.90;;;8.80;;
12296;SDS011;6211;49.124;9.152;2024-03-08T14:19:32;16.02;;;9.38;;
12296;SDS011;6211;49.124;9.152;2024-03-08T14:22:00;12.85;;;8.77;;
12296;SDS011;6211;49.124;9.152;2024-03-08T14:24:30;15.35;;;9.68;;
12296;SDS011;6211;49.124;9.152;2024-03-08T14:27:00;11.90;;;8.43;;
12296;SDS011;6211;49.124;9.152;2024-03-08T14:29:28;11.07;;;8.52;;
12296;SDS011;6211;49.124;9.152;2024-03-08T14:31:57;12.00;;;8.57;;
12296;SDS011;6211;49.124;9.152;2024-03-08T14:34:26;18.05;;;9.55;;
12296;SDS011;6211;49.124;9.152;2024-03-08T14:36:54;13.20;;;9.50;;
12296;SDS011;6211;49.124;9.152;2024-03-08T14:39:21;13.90;;;9.18;;
12296;SDS011;6211;49.124;9.152;2024-03-08T14:41:52;13.00;;;9.27;;
12296;SDS011;6211;49.124;9.152;2024-03-08T14:44:20;11.20;;;8.82;;
12296;SDS011;6211;49.124;9.152;2024-03-08T14:46:47;12.07;;;8.55;;
12296;SDS011;6211;49.124;9.152;2024-03-08T14:49:14;13.48;;;9.23;;
12296;SDS011;6211;49.124;9.152;2024-03-08T14:51:41;13.45;;;8.90;;
12296;SDS011;6211;49.124;9.152;2024-03-08T14:54:09;12.85;;;9.18;;
12296;SDS011;6211;49.124;9.152;2024-03-08T14:56:37;12.95;;;9.00;;
12296;SDS011;6211;49.124;9.152;2024-03-08T14:59:07;13.70;;;8.88;;
12296;SDS011;6211;49.124;9.152;2024-03-08T15:01:34;14.18;;;9.30;;
12296;SDS011;6211;49.124;9.152;2024-03-08T15:04:02;12.43;;;9.05;;
12296;SDS011;6211;49.124;9.152;2024-03-08T15:06:33;13.45;;;9.35;;
12296;SDS011;6211;49.124;9.152;2024-03-08T15:09:01;12.65;;;8.23;;
12296;SDS011;6211;49.124;9.152;2024-03-08T15:11:36;11.70;;;8.68;;